createdAt,value
2022-12-13T00:01:46.814Z,97259.50
2022-12-13T00:04:14.091Z,97262.09
2022-12-13T00:06:40.953Z,97263.00
2022-12-13T00:09:08.445Z,97268.88
2022-12-13T00:11:35.257Z,97266.38
2022-12-13T00:14:02.007Z,97264.69
2022-12-13T00:16:29.031Z,97270.59
2022-12-13T00:19:00.896Z,97268.09
2022-12-13T00:21:31.824Z,97269.81
2022-12-13T00:24:00.852Z,97269.81
2022-12-13T00:26:30.874Z,97268.94
2022-12-13T00:29:01.363Z,97266.47
2022-12-13T00:34:18.814Z,97258.97
2022-12-13T00:36:46.522Z,97255.69
2022-12-13T00:39:13.991Z,97254.94
2022-12-13T00:41:41.513Z,97251.59
2022-12-13T00:44:10.291Z,97246.44
2022-12-13T00:46:37.971Z,97248.09
2022-12-13T00:49:05.604Z,97248.13
2022-12-13T00:51:34.536Z,97243.91
2022-12-13T00:54:02.689Z,97243.94
2022-12-13T00:56:32.408Z,97248.13
2022-12-13T00:58:59.696Z,97243.91
2022-12-13T01:01:31.637Z,97250.59
2022-12-13T01:04:00.908Z,97240.56
2022-12-13T01:06:46.804Z,97244.00
2022-12-13T01:09:21.328Z,97239.81
2022-12-13T01:11:49.304Z,97233.03
2022-12-13T01:14:17.689Z,97234.66
2022-12-13T01:16:44.421Z,97232.13
2022-12-13T01:19:11.152Z,97225.41
2022-12-13T01:21:37.937Z,97222.13
2022-12-13T01:24:06.734Z,97217.19
2022-12-13T01:26:34.100Z,97224.06
2022-12-13T01:29:00.890Z,97235.09
2022-12-13T01:31:28.597Z,97223.41
2022-12-13T01:33:55.317Z,97216.69
2022-12-13T01:36:26.966Z,97225.09
2022-12-13T01:38:53.942Z,97227.63
2022-12-13T01:41:27.257Z,97219.28
2022-12-13T01:44:05.901Z,97218.44
2022-12-13T01:46:35.988Z,97219.25
2022-12-13T01:49:20.250Z,97208.47
2022-12-13T01:51:52.773Z,97227.66
2022-12-13T01:54:33.843Z,97229.34
2022-12-13T01:57:06.757Z,97227.69
2022-12-13T01:59:39.781Z,97221.81
2022-12-13T02:02:09.832Z,97226.03
2022-12-13T02:05:05.515Z,97230.31
2022-12-13T02:07:36.672Z,97224.50
2022-12-13T02:10:07.194Z,97228.72
2022-12-13T02:12:37.658Z,97219.53
2022-12-13T02:15:14.518Z,97208.59
2022-12-13T02:18:07.528Z,97213.72
2022-12-13T02:20:48.167Z,97210.44
2022-12-13T02:23:36.244Z,97212.19
2022-12-13T02:26:29.518Z,97213.84
2022-12-13T02:29:30.345Z,97215.50
2022-12-13T02:32:17.309Z,97223.03
2022-12-13T02:35:06.459Z,97217.13
2022-12-13T02:37:50.771Z,97207.06
2022-12-13T02:40:28.819Z,97207.91
2022-12-13T02:43:22.892Z,97207.91
2022-12-13T02:45:59.376Z,97203.78
2022-12-13T02:48:32.369Z,97200.44
2022-12-13T02:51:02.174Z,97198.81
2022-12-13T02:53:30.894Z,97194.66
2022-12-13T02:56:00.834Z,97199.66
2022-12-13T02:58:35.605Z,97194.63
2022-12-13T03:01:29.631Z,97193.91
2022-12-13T03:04:14.288Z,97197.25
2022-12-13T03:07:23.718Z,97195.53
2022-12-13T03:10:09.388Z,97195.59
2022-12-13T03:13:14.807Z,97193.09
2022-12-13T03:15:57.758Z,97180.50
2022-12-13T03:18:28.224Z,97186.38
2022-12-13T03:21:05.136Z,97179.69
2022-12-13T03:23:32.060Z,97186.41
2022-12-13T03:26:15.817Z,97177.19
2022-12-13T03:28:42.857Z,97173.88
2022-12-13T03:31:09.928Z,97178.94
2022-12-13T03:33:38.612Z,97176.44
2022-12-13T03:36:06.738Z,97173.88
2022-12-13T03:38:33.879Z,97165.47
2022-12-13T03:41:10.591Z,97163.00
2022-12-13T03:43:38.019Z,97166.41
2022-12-13T03:46:04.985Z,97165.59
2022-12-13T03:48:31.729Z,97165.63
2022-12-13T03:50:58.570Z,97157.25
2022-12-13T03:53:33.000Z,97154.69
2022-12-13T03:56:04.286Z,97161.47
2022-12-13T03:58:35.014Z,97153.13
2022-12-13T04:01:12.484Z,97145.59
2022-12-13T04:03:43.206Z,97143.19
2022-12-13T04:06:11.469Z,97150.75
2022-12-13T04:08:39.527Z,97153.31
2022-12-13T04:11:28.024Z,97155.81
2022-12-13T04:13:56.737Z,97148.25
2022-12-13T04:16:24.641Z,97149.88
2022-12-13T04:18:51.577Z,97147.34
2022-12-13T04:21:18.404Z,97156.56
2022-12-13T04:23:45.250Z,97150.72
2022-12-13T04:26:12.384Z,97154.97
2022-12-13T04:28:39.087Z,97158.44
2022-12-13T04:31:06.325Z,97155.09
2022-12-13T04:33:33.320Z,97158.41
2022-12-13T04:36:00.299Z,97149.19
2022-12-13T04:38:27.443Z,97150.84
2022-12-13T04:40:54.300Z,97148.31
2022-12-13T04:43:21.100Z,97145.78
2022-12-13T04:45:47.916Z,97152.50
2022-12-13T04:48:31.018Z,97142.50
2022-12-13T04:51:01.256Z,97150.09
2022-12-13T04:53:30.070Z,97150.13
2022-12-13T04:55:57.204Z,97144.25
2022-12-13T04:58:23.928Z,97148.38
2022-12-13T05:00:50.660Z,97150.09
2022-12-13T05:03:17.409Z,97144.25
2022-12-13T05:05:44.222Z,97141.81
2022-12-13T05:08:11.055Z,97136.78
2022-12-13T05:10:38.302Z,97134.28
2022-12-13T05:13:06.152Z,97134.28
2022-12-13T05:15:34.216Z,97144.34
2022-12-13T05:18:10.273Z,97141.06
2022-12-13T05:20:39.532Z,97152.84
2022-12-13T05:23:06.402Z,97155.41
2022-12-13T05:25:34.057Z,97148.69
2022-12-13T05:28:00.755Z,97153.66
2022-12-13T05:30:39.355Z,97146.88
2022-12-13T05:33:06.350Z,97155.31
2022-12-13T05:35:33.156Z,97147.75
2022-12-13T05:38:00.086Z,97151.16
2022-12-13T05:40:30.225Z,97153.72
2022-12-13T05:43:01.255Z,97152.09
2022-12-13T05:45:32.623Z,97163.88
2022-12-13T05:48:00.083Z,97164.69
2022-12-13T05:50:26.806Z,97155.47
2022-12-13T05:52:53.563Z,97151.31
2022-12-13T05:55:20.536Z,97153.81
2022-12-13T05:57:50.453Z,97147.97
2022-12-13T06:00:28.815Z,97138.75
2022-12-13T06:03:00.898Z,97153.06
2022-12-13T06:05:29.942Z,97143.84
2022-12-13T06:07:58.373Z,97132.16
2022-12-13T06:10:34.591Z,97138.81
2022-12-13T06:13:21.807Z,97132.88
2022-12-13T06:16:01.628Z,97121.94
2022-12-13T06:18:34.245Z,97134.47
2022-12-13T06:21:06.159Z,97138.72
2022-12-13T06:23:34.632Z,97147.97
2022-12-13T06:26:08.073Z,97134.66
2022-12-13T06:28:34.997Z,97139.69
2022-12-13T06:31:05.420Z,97141.34
2022-12-13T06:33:36.579Z,97143.94
2022-12-13T06:36:05.054Z,97146.41
2022-12-13T06:38:32.460Z,97146.38
2022-12-13T06:41:13.870Z,97142.97
2022-12-13T06:43:48.331Z,97137.91
2022-12-13T06:46:15.848Z,97142.19
2022-12-13T06:48:42.644Z,97144.72
2022-12-13T06:51:09.957Z,97143.88
2022-12-13T06:53:39.436Z,97147.25
2022-12-13T06:56:12.683Z,97145.59
2022-12-13T06:58:41.194Z,97141.44
2022-12-13T07:01:15.108Z,97153.16
2022-12-13T07:03:54.005Z,97148.16
2022-12-13T07:06:22.701Z,97154.06
2022-12-13T07:08:56.089Z,97149.78
2022-12-13T07:11:27.157Z,97137.16
2022-12-13T07:13:55.181Z,97132.91
2022-12-13T07:16:23.797Z,97132.06
2022-12-13T07:19:01.120Z,97128.72
2022-12-13T07:21:29.733Z,97140.44
2022-12-13T07:23:56.818Z,97132.91
2022-12-13T07:26:23.944Z,97146.31
2022-12-13T07:28:55.051Z,97148.84
2022-12-13T07:31:24.072Z,97147.97
2022-12-13T07:33:51.813Z,97142.84
2022-12-13T07:36:22.408Z,97147.00
2022-12-13T07:38:57.169Z,97154.47
2022-12-13T07:41:25.829Z,97153.59
2022-12-13T07:43:54.936Z,97154.34
2022-12-13T07:46:32.159Z,97158.41
2022-12-13T07:49:05.425Z,97156.41
2022-12-13T07:51:34.900Z,97143.28
2022-12-13T07:54:06.514Z,97150.28
2022-12-13T07:56:34.904Z,97153.22
2022-12-13T07:59:02.053Z,97142.66
2022-12-13T08:01:29.097Z,97142.56
2022-12-13T08:03:56.289Z,97136.25
2022-12-13T08:06:23.044Z,97139.59
2022-12-13T08:08:51.067Z,97138.34
2022-12-13T08:11:18.069Z,97132.81
2022-12-13T08:13:44.876Z,97126.97
2022-12-13T08:16:27.365Z,97130.59
2022-12-13T08:19:02.014Z,97144.06
2022-12-13T08:21:56.857Z,97141.34
2022-12-13T08:24:27.419Z,97137.28
2022-12-13T08:26:55.400Z,97144.25
2022-12-13T08:29:23.438Z,97147.72
2022-12-13T08:32:02.356Z,97148.69
2022-12-13T08:34:29.595Z,97141.13
2022-12-13T08:37:02.031Z,97138.22
2022-12-13T08:39:35.879Z,97124.31
2022-12-13T08:42:14.799Z,97148.25
2022-12-13T08:44:52.081Z,97137.88
2022-12-13T08:47:22.706Z,97142.78
2022-12-13T08:49:53.573Z,97158.31
2022-12-13T08:52:23.169Z,97158.31
2022-12-13T08:54:50.307Z,97165.75
2022-12-13T08:57:17.230Z,97160.81
2022-12-13T08:59:43.994Z,97157.84
2022-12-13T09:02:14.861Z,97162.13
2022-12-13T09:04:42.706Z,97162.69
2022-12-13T09:07:09.559Z,97151.44
2022-12-13T09:09:37.027Z,97165.88
2022-12-13T09:12:11.207Z,97163.50
2022-12-13T09:14:51.925Z,97161.03
2022-12-13T09:17:24.197Z,97156.78
2022-12-13T09:19:58.085Z,97146.47
2022-12-13T09:22:32.836Z,97149.69
2022-12-13T09:25:03.125Z,97153.75
2022-12-13T09:27:39.821Z,97151.91
2022-12-13T09:30:12.876Z,97151.72
2022-12-13T09:32:41.351Z,97147.31
2022-12-13T09:35:09.013Z,97141.19
2022-12-13T09:37:37.771Z,97150.31
2022-12-13T09:40:15.977Z,97147.56
2022-12-13T09:43:11.972Z,97145.66
2022-12-13T09:45:45.470Z,97151.25
2022-12-13T09:48:22.615Z,97161.16
2022-12-13T09:50:57.943Z,97150.84
2022-12-13T09:53:25.922Z,97149.00
2022-12-13T09:56:11.092Z,97146.97
2022-12-13T09:58:39.833Z,97152.63
2022-12-13T10:01:06.678Z,97151.47
2022-12-13T10:03:34.569Z,97151.31
2022-12-13T10:06:23.641Z,97149.31
2022-12-13T10:08:57.515Z,97133.00
2022-12-13T10:11:31.735Z,97138.63
2022-12-13T10:14:24.707Z,97129.84
2022-12-13T10:16:58.130Z,97128.69
2022-12-13T10:19:39.330Z,97118.97
2022-12-13T10:22:13.055Z,97122.88
2022-12-13T10:25:00.117Z,97121.69
2022-12-13T10:27:45.129Z,97127.22
2022-12-13T10:30:28.816Z,97117.59
2022-12-13T10:32:58.655Z,97119.00
2022-12-13T10:35:34.811Z,97112.72
2022-12-13T10:38:07.503Z,97117.38
2022-12-13T10:40:43.738Z,97117.81
2022-12-13T10:43:27.703Z,97118.97
2022-12-13T10:45:57.894Z,97106.69
2022-12-13T10:48:49.200Z,97109.63
2022-12-13T10:51:20.497Z,97104.19
2022-12-13T10:53:58.197Z,97106.09
2022-12-13T10:56:49.932Z,97096.25
2022-12-13T10:59:33.163Z,97089.28
2022-12-13T11:02:03.719Z,97078.00
2022-12-13T11:04:35.866Z,97084.47
2022-12-13T11:07:24.948Z,97080.59
2022-12-13T11:09:52.449Z,97077.66
2022-12-13T11:12:26.952Z,97085.00
2022-12-13T11:15:00.568Z,97079.69
2022-12-13T11:17:31.683Z,97078.63
2022-12-13T11:20:06.759Z,97074.66
2022-12-13T11:22:38.057Z,97080.63
2022-12-13T11:25:26.644Z,97072.13
2022-12-13T11:28:54.034Z,97080.91
2022-12-13T11:32:09.489Z,97077.75
2022-12-13T11:35:05.880Z,97064.31
2022-12-13T11:37:57.674Z,97053.78
2022-12-13T11:40:31.473Z,97056.25
2022-12-13T11:43:15.097Z,97048.16
2022-12-13T11:45:54.199Z,97042.47
2022-12-13T11:48:40.760Z,97047.75
2022-12-13T11:51:12.872Z,97031.22
2022-12-13T11:53:59.750Z,97029.19
2022-12-13T11:56:33.283Z,97027.47
2022-12-13T11:59:39.554Z,97024.50
2022-12-13T12:02:34.940Z,97012.09
2022-12-13T12:05:17.188Z,97007.75
2022-12-13T12:08:31.857Z,96995.88
2022-12-13T12:11:01.126Z,96997.28
2022-12-13T12:13:51.481Z,97000.56
2022-12-13T12:16:51.113Z,96989.00
2022-12-13T12:19:23.332Z,96988.53
2022-12-13T12:24:55.048Z,96981.34
2022-12-13T12:27:47.617Z,96907.13
2022-12-13T12:30:31.973Z,96978.63
2022-12-13T12:33:44.136Z,96984.63
2022-12-13T12:36:13.873Z,96980.75
2022-12-13T12:39:08.395Z,96981.78
2022-12-13T12:42:00.315Z,96973.81
2022-12-13T12:44:49.121Z,96973.38
2022-12-13T12:50:45.655Z,96961.00
2022-12-13T12:53:51.840Z,96961.88
2022-12-13T12:56:41.152Z,96965.72
2022-12-13T12:59:29.474Z,96962.16
2022-12-13T13:02:16.002Z,96969.16
2022-12-13T13:04:53.613Z,96963.81
2022-12-13T13:07:39.642Z,96956.44
2022-12-13T13:10:15.973Z,96960.94
2022-12-13T13:12:44.231Z,96972.53
2022-12-13T13:15:32.753Z,96970.69
2022-12-13T13:18:00.878Z,96965.25
2022-12-13T13:20:29.152Z,96964.38
2022-12-13T13:23:39.100Z,96961.97
2022-12-13T13:28:42.671Z,96967.69
2022-12-13T13:31:10.171Z,96967.75
2022-12-13T13:33:51.325Z,96971.59
2022-12-13T13:36:40.358Z,96978.53
2022-12-13T13:39:36.167Z,96976.81
2022-12-13T13:42:32.702Z,96979.31
2022-12-13T13:45:24.176Z,96971.28
2022-12-13T13:48:26.708Z,96961.50
2022-12-13T13:51:28.476Z,96950.13
2022-12-13T13:54:44.565Z,96942.38
2022-12-13T14:00:56.646Z,96940.66
2022-12-13T14:04:09.970Z,96947.84
2022-12-13T14:07:25.011Z,96944.56
2022-12-13T14:10:31.222Z,96948.56
2022-12-13T14:13:16.730Z,96967.63
2022-12-13T14:16:35.865Z,96973.38
2022-12-13T14:19:17.527Z,96964.97
2022-12-13T14:22:25.068Z,96965.63
2022-12-13T14:25:04.440Z,96962.63
2022-12-13T14:27:49.480Z,96970.44
2022-12-13T14:30:28.303Z,96978.19
2022-12-13T14:32:56.964Z,96961.19
2022-12-13T14:35:33.155Z,96972.28
2022-12-13T14:38:07.919Z,96966.94
2022-12-13T14:40:47.089Z,96953.41
2022-12-13T14:43:30.235Z,96963.53
2022-12-13T14:46:06.481Z,96965.94
2022-12-13T14:48:43.575Z,96961.56
2022-12-13T14:51:37.239Z,96960.78
2022-12-13T14:54:08.224Z,96968.22
2022-12-13T14:56:35.009Z,96957.81
2022-12-13T14:59:12.924Z,96963.56
2022-12-13T15:01:40.894Z,96959.97
2022-12-13T15:04:33.997Z,96963.97
2022-12-13T15:07:11.785Z,96956.84
2022-12-13T15:09:42.453Z,96964.88
2022-12-13T15:12:25.344Z,96962.69
2022-12-13T15:15:03.327Z,96956.38
2022-12-13T15:17:33.716Z,96958.63
2022-12-13T15:20:17.772Z,96960.72
2022-12-13T15:22:47.556Z,96963.53
2022-12-13T15:25:16.208Z,96952.91
2022-12-13T15:27:48.171Z,96966.81
2022-12-13T15:30:16.559Z,96959.69
2022-12-13T15:33:27.628Z,96959.34
2022-12-13T15:36:21.069Z,96958.06
2022-12-13T15:38:50.727Z,96953.28
2022-12-13T15:41:20.774Z,96963.81
2022-12-13T15:43:53.574Z,96969.28
2022-12-13T15:46:48.907Z,96972.28
2022-12-13T15:49:29.541Z,96975.94
2022-12-13T15:52:08.035Z,96971.94
2022-12-13T15:54:34.837Z,96975.63
2022-12-13T15:57:29.280Z,96975.81
2022-12-13T16:00:19.458Z,96962.53
2022-12-13T16:03:09.138Z,96967.94
2022-12-13T16:05:46.910Z,96973.34
2022-12-13T16:08:33.037Z,96960.25
2022-12-13T16:11:00.597Z,96967.31
2022-12-13T16:13:38.170Z,96961.44
2022-12-13T16:16:29.414Z,96968.41
2022-12-13T16:19:00.884Z,96955.91
2022-12-13T16:21:28.596Z,96965.47
2022-12-13T16:23:55.389Z,96955.44
2022-12-13T16:26:27.377Z,96952.91
2022-12-13T16:28:59.427Z,96938.72
2022-12-13T16:31:35.850Z,96938.91
2022-12-13T16:34:04.940Z,96940.81
2022-12-13T16:36:32.232Z,96931.75
2022-12-13T16:38:59.121Z,96934.38
2022-12-13T16:41:26.159Z,96933.72
2022-12-13T16:44:00.243Z,96933.06
2022-12-13T16:47:12.704Z,96939.78
2022-12-13T16:49:26.570Z,96944.03
2022-12-13T16:51:53.592Z,96936.38
2022-12-13T16:54:22.254Z,96938.91
2022-12-13T16:56:50.508Z,96938.16
2022-12-13T16:59:22.201Z,96925.69
2022-12-13T17:01:50.457Z,96919.84
2022-12-13T17:04:23.256Z,96912.38
2022-12-13T17:06:54.992Z,96914.94
2022-12-13T17:09:22.700Z,96911.50
2022-12-13T17:11:49.413Z,96909.81
2022-12-13T17:14:16.104Z,96915.00
2022-12-13T17:16:42.934Z,96910.75
2022-12-13T17:19:12.184Z,96915.00
2022-12-13T17:21:38.909Z,96907.44
2022-12-13T17:24:05.980Z,96904.97
2022-12-13T17:26:32.763Z,96903.44
2022-12-13T17:28:59.534Z,96910.41
2022-12-13T17:31:31.736Z,96909.78
2022-12-13T17:34:02.586Z,96909.97
2022-12-13T17:36:31.243Z,96908.38
2022-12-13T17:38:58.001Z,96915.31
2022-12-13T17:41:24.961Z,96912.06
2022-12-13T17:43:51.753Z,96899.59
2022-12-13T17:46:19.112Z,96894.63
2022-12-13T17:48:46.016Z,96886.22
2022-12-13T17:51:14.378Z,96887.94
2022-12-13T17:53:43.833Z,96879.59
2022-12-13T17:56:15.097Z,96867.84
2022-12-13T17:58:42.642Z,96879.16
2022-12-13T18:01:20.369Z,96875.06
2022-12-13T18:03:48.784Z,96877.75
2022-12-13T18:06:16.013Z,96877.13
2022-12-13T18:08:44.407Z,96875.56
2022-12-13T18:14:04.792Z,96889.50
2022-12-13T18:16:37.103Z,96889.66
2022-12-13T18:19:11.617Z,96869.38
2022-12-13T18:21:39.166Z,96878.66
2022-12-13T18:24:07.313Z,96885.28
2022-12-13T18:26:35.144Z,96889.56
2022-12-13T18:29:04.110Z,96898.34
2022-12-13T18:31:30.979Z,96910.50
2022-12-13T18:33:57.790Z,96907.13
2022-12-13T18:36:25.964Z,96915.47
2022-12-13T18:38:53.182Z,96905.13
2022-12-13T18:41:24.216Z,96912.56
2022-12-13T18:44:07.821Z,96903.22
2022-12-13T18:46:37.420Z,96899.78
2022-12-13T18:49:05.551Z,96905.78
2022-12-13T18:51:32.449Z,96905.06
2022-12-13T18:53:59.328Z,96915.19
2022-12-13T18:56:26.093Z,96912.56
2022-12-13T18:58:57.950Z,96905.78
2022-12-13T19:01:27.694Z,96899.06
2022-12-13T19:03:54.881Z,96907.53
2022-12-13T19:06:25.375Z,96914.38
2022-12-13T19:08:56.327Z,96900.88
2022-12-13T19:11:26.268Z,96905.06
2022-12-13T19:13:53.755Z,96903.31
2022-12-13T19:16:23.213Z,96907.50
2022-12-13T19:18:49.996Z,96899.91
2022-12-13T19:21:19.734Z,96905.78
2022-12-13T19:23:53.180Z,96902.28
2022-12-13T19:26:22.563Z,96899.53
2022-12-13T19:28:49.324Z,96883.34
2022-12-13T19:31:16.232Z,96898.41
2022-12-13T19:33:43.744Z,96892.44
2022-12-13T19:36:11.344Z,96892.50
2022-12-13T19:38:39.566Z,96892.59
2022-12-13T19:41:13.331Z,96884.91
2022-12-13T19:43:41.451Z,96872.16
2022-12-13T19:46:09.186Z,96873.81
2022-12-13T19:48:37.668Z,96862.00
2022-12-13T19:51:07.952Z,96860.25
2022-12-13T19:53:36.029Z,96861.91
2022-12-13T19:56:10.677Z,96855.19
2022-12-13T19:58:39.416Z,96857.81
2022-12-13T20:01:07.731Z,96853.63
2022-12-13T20:03:36.953Z,96838.38
2022-12-13T20:06:04.876Z,96829.00
2022-12-13T20:08:32.886Z,96823.00
2022-12-13T20:11:14.065Z,96825.59
2022-12-13T20:13:41.492Z,96826.41
2022-12-13T20:16:15.453Z,96817.94
2022-12-13T20:18:42.309Z,96801.91
2022-12-13T20:21:12.524Z,96809.56
2022-12-13T20:23:40.975Z,96810.38
2022-12-13T20:26:15.952Z,96811.09
2022-12-13T20:28:43.076Z,96808.38
2022-12-13T20:31:16.533Z,96804.88
2022-12-13T20:33:43.995Z,96809.13
2022-12-13T20:36:24.720Z,96795.50
2022-12-13T20:38:57.299Z,96787.78
2022-12-13T20:41:27.427Z,96793.63
2022-12-13T20:43:56.102Z,96788.47
2022-12-13T20:46:25.264Z,96785.06
2022-12-13T20:48:52.840Z,96785.13
2022-12-13T20:51:23.781Z,96778.28
2022-12-13T20:53:52.473Z,96772.38
2022-12-13T20:56:23.535Z,96768.13
2022-12-13T20:58:50.824Z,96774.69
2022-12-13T21:01:27.852Z,96782.06
2022-12-13T21:03:58.272Z,96786.06
2022-12-13T21:06:24.967Z,96781.69
2022-12-13T21:08:51.743Z,96789.31
2022-12-13T21:11:25.597Z,96781.75
2022-12-13T21:14:18.556Z,96771.50
2022-12-13T21:16:50.956Z,96772.44
2022-12-13T21:19:24.461Z,96750.44
2022-12-13T21:21:52.843Z,96743.69
2022-12-13T21:24:22.294Z,96752.06
2022-12-13T21:26:49.156Z,96751.19
2022-12-13T21:29:18.727Z,96750.31
2022-12-13T21:31:51.087Z,96754.38
2022-12-13T21:34:19.596Z,96738.03
2022-12-13T21:36:49.008Z,96725.22
2022-12-13T21:39:22.723Z,96720.78
2022-12-13T21:41:50.360Z,96730.03
2022-12-13T21:44:19.180Z,96741.72
2022-12-13T21:47:11.408Z,96740.00
2022-12-13T21:49:33.621Z,96747.84
2022-12-13T21:52:00.326Z,96768.34
2022-12-13T21:54:27.057Z,96754.19
2022-12-13T21:57:12.879Z,96749.16
2022-12-13T21:59:39.703Z,96755.94
2022-12-13T22:02:16.890Z,96761.75
2022-12-13T22:04:50.778Z,96754.97
2022-12-13T22:07:30.479Z,96760.91
2022-12-13T22:09:59.035Z,96768.66
2022-12-13T22:12:37.332Z,96762.81
2022-12-13T22:15:13.808Z,96745.13
2022-12-13T22:17:42.007Z,96741.75
2022-12-13T22:20:13.525Z,96737.56
2022-12-13T22:22:43.903Z,96732.44
2022-12-13T22:25:10.871Z,96750.09
2022-12-13T22:27:37.566Z,96745.78
2022-12-13T22:30:05.033Z,96737.13
2022-12-13T22:32:33.811Z,96736.19
2022-12-13T22:35:00.543Z,96747.88
2022-12-13T22:37:27.244Z,96747.00
2022-12-13T22:39:54.088Z,96731.78
2022-12-13T22:42:21.577Z,96731.78
2022-12-13T22:44:48.504Z,96736.00
2022-12-13T22:47:15.851Z,96726.53
2022-12-13T22:49:42.583Z,96718.81
2022-12-13T22:52:09.438Z,96706.06
2022-12-13T22:54:36.147Z,96699.22
2022-12-13T22:57:03.099Z,96698.31
2022-12-13T22:59:30.002Z,96697.34
2022-12-13T23:02:02.124Z,96699.00
2022-12-13T23:04:31.659Z,96682.81
2022-12-13T23:06:58.480Z,96682.00
2022-12-13T23:09:25.210Z,96684.28
2022-12-13T23:12:10.512Z,96674.06
2022-12-13T23:14:37.231Z,96681.47
2022-12-13T23:17:04.805Z,96671.97
2022-12-13T23:19:41.592Z,96670.09
2022-12-13T23:22:22.327Z,96665.66
2022-12-13T23:24:50.742Z,96656.25
2022-12-13T23:27:22.020Z,96657.69
2022-12-13T23:29:49.420Z,96648.34
2022-12-13T23:32:16.435Z,96648.22
2022-12-13T23:34:43.246Z,96650.69
2022-12-13T23:37:09.940Z,96638.06
2022-12-13T23:39:36.640Z,96643.97
2022-12-13T23:42:03.393Z,96643.13
2022-12-13T23:44:30.079Z,96642.19
2022-12-13T23:46:56.843Z,96640.44
2022-12-13T23:49:23.618Z,96642.84
2022-12-13T23:51:50.357Z,96645.38
2022-12-13T23:54:19.329Z,96640.31
2022-12-13T23:56:47.266Z,96636.81
2022-12-13T23:59:14.153Z,96627.41
